createdAt,value
2022-08-16T00:09:35.924Z,0
2022-08-16T00:19:41.414Z,0
2022-08-16T00:39:37.188Z,0
2022-08-16T00:59:37.540Z,0
2022-08-16T01:19:40.831Z,0
2022-08-16T01:49:43.809Z,0
2022-08-16T01:59:41.342Z,0
2022-08-16T02:09:42.036Z,0
2022-08-16T02:12:39.614Z,0
2022-08-16T02:39:53.877Z,0
2022-08-16T02:59:52.946Z,0
2022-08-16T03:09:53.601Z,0
2022-08-16T03:19:59.492Z,0
2022-08-16T03:29:55.040Z,0
2022-08-16T03:39:56.168Z,0
2022-08-16T03:49:56.053Z,0
2022-08-16T03:59:57.012Z,0
2022-08-16T04:19:58.080Z,0
2022-08-16T04:30:02.669Z,0
2022-08-16T04:49:59.355Z,0
2022-08-16T04:59:59.430Z,0
2022-08-16T05:10:00.091Z,0
2022-08-16T05:20:01.109Z,0
2022-08-16T05:30:03.795Z,0
2022-08-16T05:40:06.023Z,0
2022-08-16T05:50:02.649Z,0
2022-08-16T06:00:07.163Z,0
2022-08-16T06:10:03.003Z,0
2022-08-16T06:20:03.524Z,0
2022-08-16T06:30:04.456Z,0
2022-08-16T06:40:04.495Z,0
2022-08-16T06:50:05.498Z,0
2022-08-16T07:00:06.107Z,0
2022-08-16T07:10:08.603Z,0
2022-08-16T07:20:30.608Z,0
2022-08-16T07:40:11.241Z,0
2022-08-16T07:50:08.897Z,0
2022-08-16T08:00:18.666Z,0
2022-08-16T08:10:10.986Z,0
2022-08-16T08:20:10.319Z,0
2022-08-16T08:30:49.112Z,0
2022-08-16T08:40:11.898Z,0
2022-08-16T08:50:12.791Z,0
2022-08-16T09:00:14.252Z,0
2022-08-16T09:10:20.586Z,20
2022-08-16T09:30:33.222Z,66
2022-08-16T09:40:18.032Z,77
2022-08-16T09:50:22.481Z,82
2022-08-16T10:00:42.785Z,85
2022-08-16T10:10:18.794Z,86
2022-08-16T10:20:18.865Z,87
2022-08-16T10:30:24.663Z,87
2022-08-16T10:40:28.889Z,87
2022-08-16T10:50:20.706Z,86
2022-08-16T11:00:22.395Z,85
2022-08-16T11:11:04.493Z,85
2022-08-16T11:20:40.959Z,82
2022-08-16T11:30:24.293Z,84
2022-08-16T11:40:32.318Z,83
2022-08-16T11:50:24.691Z,82
2022-08-16T12:00:33.114Z,81
2022-08-16T12:10:25.917Z,81
2022-08-16T12:30:32.364Z,79
2022-08-16T12:40:28.992Z,80
2022-08-16T12:50:33.121Z,79
2022-08-16T13:00:33.402Z,77
2022-08-16T13:10:37.500Z,78
2022-08-16T13:20:30.063Z,76
2022-08-16T13:30:36.744Z,77
2022-08-16T13:40:31.878Z,76
2022-08-16T13:50:49.487Z,75
2022-08-16T14:00:33.358Z,75
2022-08-16T14:10:33.732Z,76
2022-08-16T14:20:34.717Z,74
2022-08-16T14:30:35.670Z,74
2022-08-16T14:40:36.306Z,77
2022-08-16T14:50:37.022Z,78
2022-08-16T15:00:37.612Z,77
2022-08-16T15:30:58.132Z,78
2022-08-16T15:40:55.047Z,78
2022-08-16T15:50:41.155Z,77
2022-08-16T16:10:42.113Z,77
2022-08-16T16:20:42.595Z,78
2022-08-16T16:30:45.164Z,79
2022-08-16T16:40:46.232Z,80
2022-08-16T17:00:46.015Z,81
2022-08-16T17:20:46.455Z,81
2022-08-16T17:40:55.278Z,80
2022-08-16T17:50:48.227Z,80
2022-08-16T18:00:48.856Z,86
2022-08-16T18:10:49.509Z,92
2022-08-16T18:20:50.428Z,93
2022-08-16T18:30:51.913Z,88
2022-08-16T18:40:51.327Z,87
2022-08-16T18:50:59.548Z,82
2022-08-16T19:10:52.957Z,68
2022-08-16T19:20:53.772Z,60
2022-08-16T19:30:53.953Z,50
2022-08-16T19:40:54.827Z,52
2022-08-16T19:50:55.227Z,46
2022-08-16T20:00:56.327Z,35
2022-08-16T20:30:57.171Z,5
2022-08-16T20:40:57.769Z,0
2022-08-16T20:50:58.548Z,0
2022-08-16T21:00:59.382Z,0
2022-08-16T21:10:59.927Z,0
2022-08-16T21:31:01.562Z,0
2022-08-16T21:41:02.459Z,0
2022-08-16T22:01:03.509Z,0
2022-08-16T22:11:07.959Z,35
2022-08-16T22:21:05.014Z,80
2022-08-16T22:31:05.901Z,86
2022-08-16T22:41:06.566Z,86
2022-08-16T22:51:06.628Z,82
2022-08-16T23:11:07.856Z,71
2022-08-16T23:21:08.298Z,60
2022-08-16T23:31:09.147Z,58
2022-08-16T23:41:11.286Z,63
